sensor_id;sensor_type;location;lat;lon;timestamp;P1;durP1;ratioP1;P2;durP2;ratioP2
13834;SDS011;6988;52.614;13.500;2023-08-06T00:01:05;8.53;;;7.57;;
13834;SDS011;6988;52.614;13.500;2023-08-06T00:05:56;7.67;;;6.80;;
13834;SDS011;6988;52.614;13.500;2023-08-06T00:10:48;11.37;;;7.93;;
13834;SDS011;6988;52.614;13.500;2023-08-06T00:15:40;12.37;;;8.07;;
13834;SDS011;6988;52.614;13.500;2023-08-06T00:20:33;8.77;;;7.80;;
13834;SDS011;6988;52.614;13.500;2023-08-06T00:25:25;10.10;;;7.77;;
13834;SDS011;6988;52.614;13.500;2023-08-06T00:30:17;9.87;;;8.17;;
13834;SDS011;6988;52.614;13.500;2023-08-06T00:35:11;11.50;;;7.77;;
13834;SDS011;6988;52.614;13.500;2023-08-06T00:40:06;8.43;;;7.60;;
13834;SDS011;6988;52.614;13.500;2023-08-06T00:44:59;9.10;;;8.20;;
13834;SDS011;6988;52.614;13.500;2023-08-06T00:49:51;10.23;;;8.57;;
13834;SDS011;6988;52.614;13.500;2023-08-06T00:54:43;9.93;;;8.40;;
13834;SDS011;6988;52.614;13.500;2023-08-06T00:59:36;9.30;;;8.40;;
13834;SDS011;6988;52.614;13.500;2023-08-06T01:04:28;10.27;;;8.57;;
13834;SDS011;6988;52.614;13.500;2023-08-06T01:09:27;11.30;;;8.63;;
13834;SDS011;6988;52.614;13.500;2023-08-06T01:14:32;9.43;;;8.53;;
13834;SDS011;6988;52.614;13.500;2023-08-06T01:19:35;8.77;;;8.00;;
13834;SDS011;6988;52.614;13.500;2023-08-06T01:24:28;10.00;;;8.90;;
13834;SDS011;6988;52.614;13.500;2023-08-06T01:29:22;9.57;;;8.57;;
13834;SDS011;6988;52.614;13.500;2023-08-06T01:34:23;12.17;;;9.20;;
13834;SDS011;6988;52.614;13.500;2023-08-06T01:39:19;9.40;;;8.50;;
13834;SDS011;6988;52.614;13.500;2023-08-06T01:44:13;10.50;;;8.77;;
13834;SDS011;6988;52.614;13.500;2023-08-06T01:49:06;9.70;;;8.77;;
13834;SDS011;6988;52.614;13.500;2023-08-06T01:53:58;9.70;;;8.80;;
13834;SDS011;6988;52.614;13.500;2023-08-06T01:58:49;10.83;;;9.73;;
13834;SDS011;6988;52.614;13.500;2023-08-06T02:03:43;10.60;;;9.60;;
13834;SDS011;6988;52.614;13.500;2023-08-06T02:08:35;11.00;;;9.60;;
13834;SDS011;6988;52.614;13.500;2023-08-06T02:13:26;10.77;;;9.67;;
13834;SDS011;6988;52.614;13.500;2023-08-06T02:18:18;11.53;;;9.40;;
13834;SDS011;6988;52.614;13.500;2023-08-06T02:23:11;11.17;;;9.90;;
13834;SDS011;6988;52.614;13.500;2023-08-06T02:28:03;10.90;;;9.80;;
13834;SDS011;6988;52.614;13.500;2023-08-06T02:32:55;11.00;;;9.90;;
13834;SDS011;6988;52.614;13.500;2023-08-06T02:37:47;12.33;;;9.43;;
13834;SDS011;6988;52.614;13.500;2023-08-06T02:42:40;10.07;;;9.17;;
13834;SDS011;6988;52.614;13.500;2023-08-06T02:47:32;10.00;;;8.87;;
13834;SDS011;6988;52.614;13.500;2023-08-06T02:52:24;9.67;;;8.67;;
13834;SDS011;6988;52.614;13.500;2023-08-06T02:57:16;9.43;;;8.53;;
13834;SDS011;6988;52.614;13.500;2023-08-06T03:02:15;9.37;;;8.43;;
13834;SDS011;6988;52.614;13.500;2023-08-06T03:07:25;8.73;;;7.93;;
13834;SDS011;6988;52.614;13.500;2023-08-06T03:12:22;8.87;;;7.90;;
13834;SDS011;6988;52.614;13.500;2023-08-06T03:17:14;9.03;;;8.10;;
13834;SDS011;6988;52.614;13.500;2023-08-06T03:22:07;8.47;;;7.57;;
13834;SDS011;6988;52.614;13.500;2023-08-06T03:27:00;9.20;;;8.17;;
13834;SDS011;6988;52.614;13.500;2023-08-06T03:31:54;8.23;;;7.43;;
13834;SDS011;6988;52.614;13.500;2023-08-06T03:36:47;8.53;;;7.73;;
13834;SDS011;6988;52.614;13.500;2023-08-06T03:41:39;7.80;;;6.93;;
13834;SDS011;6988;52.614;13.500;2023-08-06T03:46:32;7.27;;;6.67;;
13834;SDS011;6988;52.614;13.500;2023-08-06T03:51:26;7.63;;;6.80;;
13834;SDS011;6988;52.614;13.500;2023-08-06T03:56:21;7.57;;;6.83;;
13834;SDS011;6988;52.614;13.500;2023-08-06T04:01:14;7.80;;;7.03;;
13834;SDS011;6988;52.614;13.500;2023-08-06T04:06:08;7.20;;;6.50;;
13834;SDS011;6988;52.614;13.500;2023-08-06T04:11:01;6.80;;;6.20;;
13834;SDS011;6988;52.614;13.500;2023-08-06T04:15:55;7.23;;;6.53;;
13834;SDS011;6988;52.614;13.500;2023-08-06T04:20:52;7.40;;;6.70;;
13834;SDS011;6988;52.614;13.500;2023-08-06T04:25:45;7.20;;;6.53;;
13834;SDS011;6988;52.614;13.500;2023-08-06T04:30:37;6.73;;;6.13;;
13834;SDS011;6988;52.614;13.500;2023-08-06T04:35:32;8.30;;;6.73;;
13834;SDS011;6988;52.614;13.500;2023-08-06T04:40:25;7.33;;;6.67;;
13834;SDS011;6988;52.614;13.500;2023-08-06T04:45:18;6.30;;;5.70;;
13834;SDS011;6988;52.614;13.500;2023-08-06T04:50:10;6.93;;;6.30;;
13834;SDS011;6988;52.614;13.500;2023-08-06T04:55:03;7.47;;;6.60;;
13834;SDS011;6988;52.614;13.500;2023-08-06T04:59:56;6.93;;;6.30;;
13834;SDS011;6988;52.614;13.500;2023-08-06T05:04:48;7.80;;;7.00;;
13834;SDS011;6988;52.614;13.500;2023-08-06T05:09:39;7.63;;;6.83;;
13834;SDS011;6988;52.614;13.500;2023-08-06T05:14:33;7.20;;;6.50;;
13834;SDS011;6988;52.614;13.500;2023-08-06T05:19:24;7.60;;;6.90;;
13834;SDS011;6988;52.614;13.500;2023-08-06T05:24:16;7.27;;;6.57;;
13834;SDS011;6988;52.614;13.500;2023-08-06T05:29:08;7.93;;;6.43;;
13834;SDS011;6988;52.614;13.500;2023-08-06T05:34:01;7.73;;;7.03;;
13834;SDS011;6988;52.614;13.500;2023-08-06T05:38:53;7.40;;;6.60;;
13834;SDS011;6988;52.614;13.500;2023-08-06T05:43:45;8.70;;;6.97;;
13834;SDS011;6988;52.614;13.500;2023-08-06T05:48:36;8.57;;;6.60;;
13834;SDS011;6988;52.614;13.500;2023-08-06T05:53:29;7.17;;;6.57;;
13834;SDS011;6988;52.614;13.500;2023-08-06T05:58:21;7.90;;;7.20;;
13834;SDS011;6988;52.614;13.500;2023-08-06T06:03:15;7.97;;;7.10;;
13834;SDS011;6988;52.614;13.500;2023-08-06T06:08:07;9.50;;;8.50;;
13834;SDS011;6988;52.614;13.500;2023-08-06T06:13:00;8.57;;;7.77;;
13834;SDS011;6988;52.614;13.500;2023-08-06T06:17:52;8.87;;;7.97;;
13834;SDS011;6988;52.614;13.500;2023-08-06T06:22:44;9.67;;;8.67;;
13834;SDS011;6988;52.614;13.500;2023-08-06T06:27:35;9.83;;;8.83;;
13834;SDS011;6988;52.614;13.500;2023-08-06T06:32:29;9.90;;;8.73;;
13834;SDS011;6988;52.614;13.500;2023-08-06T06:37:21;9.70;;;8.77;;
13834;SDS011;6988;52.614;13.500;2023-08-06T06:42:13;9.87;;;8.87;;
13834;SDS011;6988;52.614;13.500;2023-08-06T06:47:08;9.23;;;8.33;;
13834;SDS011;6988;52.614;13.500;2023-08-06T06:52:02;10.73;;;8.97;;
13834;SDS011;6988;52.614;13.500;2023-08-06T06:56:54;9.13;;;8.33;;
13834;SDS011;6988;52.614;13.500;2023-08-06T07:01:46;8.70;;;7.90;;
13834;SDS011;6988;52.614;13.500;2023-08-06T07:06:38;9.83;;;8.83;;
13834;SDS011;6988;52.614;13.500;2023-08-06T07:11:31;9.73;;;8.83;;
13834;SDS011;6988;52.614;13.500;2023-08-06T07:16:23;9.87;;;9.07;;
13834;SDS011;6988;52.614;13.500;2023-08-06T07:21:15;9.10;;;8.23;;
13834;SDS011;6988;52.614;13.500;2023-08-06T07:26:06;9.90;;;8.97;;
13834;SDS011;6988;52.614;13.500;2023-08-06T07:31:02;10.23;;;9.23;;
13834;SDS011;6988;52.614;13.500;2023-08-06T07:35:54;8.83;;;8.03;;
13834;SDS011;6988;52.614;13.500;2023-08-06T07:40:46;8.83;;;8.07;;
13834;SDS011;6988;52.614;13.500;2023-08-06T07:45:38;9.07;;;8.20;;
13834;SDS011;6988;52.614;13.500;2023-08-06T07:50:31;8.23;;;7.53;;
13834;SDS011;6988;52.614;13.500;2023-08-06T07:55:23;8.77;;;7.97;;
13834;SDS011;6988;52.614;13.500;2023-08-06T08:00:16;8.80;;;7.97;;
13834;SDS011;6988;52.614;13.500;2023-08-06T08:05:09;8.10;;;7.30;;
13834;SDS011;6988;52.614;13.500;2023-08-06T08:10:02;7.87;;;7.17;;
13834;SDS011;6988;52.614;13.500;2023-08-06T08:14:55;8.50;;;7.70;;
13834;SDS011;6988;52.614;13.500;2023-08-06T08:19:47;8.70;;;7.90;;
13834;SDS011;6988;52.614;13.500;2023-08-06T08:24:38;9.57;;;8.77;;
13834;SDS011;6988;52.614;13.500;2023-08-06T08:29:32;9.53;;;8.63;;
13834;SDS011;6988;52.614;13.500;2023-08-06T08:34:23;10.17;;;9.17;;
13834;SDS011;6988;52.614;13.500;2023-08-06T08:39:16;10.80;;;9.90;;
13834;SDS011;6988;52.614;13.500;2023-08-06T08:44:08;10.80;;;9.80;;
13834;SDS011;6988;52.614;13.500;2023-08-06T08:49:02;11.50;;;10.30;;
13834;SDS011;6988;52.614;13.500;2023-08-06T08:53:55;11.07;;;10.07;;
13834;SDS011;6988;52.614;13.500;2023-08-06T08:58:47;12.43;;;11.23;;
13834;SDS011;6988;52.614;13.500;2023-08-06T09:03:39;11.40;;;10.30;;
13834;SDS011;6988;52.614;13.500;2023-08-06T09:08:34;11.50;;;10.40;;
13834;SDS011;6988;52.614;13.500;2023-08-06T09:13:32;11.20;;;10.10;;
13834;SDS011;6988;52.614;13.500;2023-08-06T09:18:25;12.93;;;11.73;;
13834;SDS011;6988;52.614;13.500;2023-08-06T09:23:18;13.00;;;11.70;;
13834;SDS011;6988;52.614;13.500;2023-08-06T09:28:12;12.97;;;11.77;;
13834;SDS011;6988;52.614;13.500;2023-08-06T09:33:04;11.97;;;10.87;;
13834;SDS011;6988;52.614;13.500;2023-08-06T09:38:05;13.17;;;11.87;;
13834;SDS011;6988;52.614;13.500;2023-08-06T09:43:01;13.00;;;11.70;;
13834;SDS011;6988;52.614;13.500;2023-08-06T09:47:56;13.00;;;11.70;;
13834;SDS011;6988;52.614;13.500;2023-08-06T09:52:50;11.50;;;10.50;;
13834;SDS011;6988;52.614;13.500;2023-08-06T09:57:43;11.20;;;10.10;;
13834;SDS011;6988;52.614;13.500;2023-08-06T10:02:35;11.07;;;10.07;;
13834;SDS011;6988;52.614;13.500;2023-08-06T10:07:30;10.23;;;9.27;;
13834;SDS011;6988;52.614;13.500;2023-08-06T10:12:22;9.73;;;8.83;;
13834;SDS011;6988;52.614;13.500;2023-08-06T10:17:17;9.57;;;8.23;;
13834;SDS011;6988;52.614;13.500;2023-08-06T10:22:09;7.63;;;6.93;;
13834;SDS011;6988;52.614;13.500;2023-08-06T10:27:04;8.50;;;7.70;;
13834;SDS011;6988;52.614;13.500;2023-08-06T10:31:58;8.70;;;7.80;;
13834;SDS011;6988;52.614;13.500;2023-08-06T10:36:53;8.80;;;7.90;;
13834;SDS011;6988;52.614;13.500;2023-08-06T10:41:46;9.17;;;8.37;;
13834;SDS011;6988;52.614;13.500;2023-08-06T10:46:40;8.87;;;7.80;;
13834;SDS011;6988;52.614;13.500;2023-08-06T10:51:32;8.67;;;7.73;;
13834;SDS011;6988;52.614;13.500;2023-08-06T10:56:24;8.87;;;8.07;;
13834;SDS011;6988;52.614;13.500;2023-08-06T11:01:17;8.80;;;7.97;;
13834;SDS011;6988;52.614;13.500;2023-08-06T11:06:11;7.97;;;7.17;;
13834;SDS011;6988;52.614;13.500;2023-08-06T11:11:09;8.30;;;7.50;;
13834;SDS011;6988;52.614;13.500;2023-08-06T11:16:04;9.37;;;8.47;;
13834;SDS011;6988;52.614;13.500;2023-08-06T11:20:58;8.73;;;7.93;;
13834;SDS011;6988;52.614;13.500;2023-08-06T11:25:52;8.43;;;7.63;;
13834;SDS011;6988;52.614;13.500;2023-08-06T11:30:45;8.93;;;8.07;;
13834;SDS011;6988;52.614;13.500;2023-08-06T11:35:36;9.77;;;8.87;;
13834;SDS011;6988;52.614;13.500;2023-08-06T11:40:29;9.00;;;8.20;;
13834;SDS011;6988;52.614;13.500;2023-08-06T11:45:24;8.23;;;7.43;;
13834;SDS011;6988;52.614;13.500;2023-08-06T11:50:21;10.00;;;8.13;;
13834;SDS011;6988;52.614;13.500;2023-08-06T11:55:14;8.50;;;7.70;;
13834;SDS011;6988;52.614;13.500;2023-08-06T12:00:07;8.77;;;7.87;;
13834;SDS011;6988;52.614;13.500;2023-08-06T12:05:11;8.73;;;7.93;;
13834;SDS011;6988;52.614;13.500;2023-08-06T12:10:04;9.73;;;8.73;;
13834;SDS011;6988;52.614;13.500;2023-08-06T12:14:57;10.07;;;8.67;;
13834;SDS011;6988;52.614;13.500;2023-08-06T12:19:49;9.43;;;8.43;;
13834;SDS011;6988;52.614;13.500;2023-08-06T12:24:42;10.27;;;9.27;;
13834;SDS011;6988;52.614;13.500;2023-08-06T12:29:37;9.80;;;8.80;;
13834;SDS011;6988;52.614;13.500;2023-08-06T12:34:32;9.40;;;8.50;;
13834;SDS011;6988;52.614;13.500;2023-08-06T12:39:24;8.47;;;7.67;;
13834;SDS011;6988;52.614;13.500;2023-08-06T12:44:19;10.37;;;8.57;;
13834;SDS011;6988;52.614;13.500;2023-08-06T12:49:11;9.40;;;8.37;;
13834;SDS011;6988;52.614;13.500;2023-08-06T12:54:03;8.80;;;7.90;;
13834;SDS011;6988;52.614;13.500;2023-08-06T12:58:55;8.87;;;7.97;;
13834;SDS011;6988;52.614;13.500;2023-08-06T13:03:48;7.87;;;7.10;;
13834;SDS011;6988;52.614;13.500;2023-08-06T13:08:40;7.40;;;6.47;;
13834;SDS011;6988;52.614;13.500;2023-08-06T13:13:32;7.57;;;6.60;;
13834;SDS011;6988;52.614;13.500;2023-08-06T13:18:23;7.80;;;6.53;;
13834;SDS011;6988;52.614;13.500;2023-08-06T13:23:17;6.37;;;5.77;;
13834;SDS011;6988;52.614;13.500;2023-08-06T13:28:09;6.47;;;5.77;;
13834;SDS011;6988;52.614;13.500;2023-08-06T13:33:01;11.27;;;6.57;;
13834;SDS011;6988;52.614;13.500;2023-08-06T13:37:54;9.47;;;6.40;;
13834;SDS011;6988;52.614;13.500;2023-08-06T13:42:47;5.50;;;4.70;;
13834;SDS011;6988;52.614;13.500;2023-08-06T13:47:39;5.10;;;4.60;;
13834;SDS011;6988;52.614;13.500;2023-08-06T13:52:32;5.77;;;4.53;;
13834;SDS011;6988;52.614;13.500;2023-08-06T13:57:25;5.17;;;4.47;;
13834;SDS011;6988;52.614;13.500;2023-08-06T14:02:18;5.33;;;4.40;;
13834;SDS011;6988;52.614;13.500;2023-08-06T14:07:10;5.27;;;4.60;;
13834;SDS011;6988;52.614;13.500;2023-08-06T14:12:02;4.53;;;4.10;;
13834;SDS011;6988;52.614;13.500;2023-08-06T14:16:55;4.27;;;3.87;;
13834;SDS011;6988;52.614;13.500;2023-08-06T14:21:48;6.37;;;4.43;;
13834;SDS011;6988;52.614;13.500;2023-08-06T14:26:40;5.53;;;4.30;;
13834;SDS011;6988;52.614;13.500;2023-08-06T14:36:25;5.57;;;3.97;;
13834;SDS011;6988;52.614;13.500;2023-08-06T14:41:18;5.03;;;4.10;;
13834;SDS011;6988;52.614;13.500;2023-08-06T14:46:10;4.80;;;4.03;;
13834;SDS011;6988;52.614;13.500;2023-08-06T14:51:02;5.70;;;4.30;;
13834;SDS011;6988;52.614;13.500;2023-08-06T14:55:53;4.97;;;3.70;;
13834;SDS011;6988;52.614;13.500;2023-08-06T15:00:47;5.30;;;3.73;;
13834;SDS011;6988;52.614;13.500;2023-08-06T15:05:38;6.13;;;3.73;;
13834;SDS011;6988;52.614;13.500;2023-08-06T15:10:34;5.20;;;3.93;;
13834;SDS011;6988;52.614;13.500;2023-08-06T15:15:26;5.37;;;3.63;;
13834;SDS011;6988;52.614;13.500;2023-08-06T15:20:19;5.00;;;3.60;;
13834;SDS011;6988;52.614;13.500;2023-08-06T15:25:11;5.97;;;3.80;;
13834;SDS011;6988;52.614;13.500;2023-08-06T15:30:03;4.57;;;3.67;;
13834;SDS011;6988;52.614;13.500;2023-08-06T15:34:56;4.33;;;3.03;;
13834;SDS011;6988;52.614;13.500;2023-08-06T15:39:49;3.93;;;2.80;;
13834;SDS011;6988;52.614;13.500;2023-08-06T15:44:42;4.37;;;3.10;;
13834;SDS011;6988;52.614;13.500;2023-08-06T15:49:34;3.20;;;2.90;;
13834;SDS011;6988;52.614;13.500;2023-08-06T15:54:26;4.27;;;3.30;;
13834;SDS011;6988;52.614;13.500;2023-08-06T15:59:23;3.07;;;2.83;;
13834;SDS011;6988;52.614;13.500;2023-08-06T16:04:17;3.87;;;2.93;;
13834;SDS011;6988;52.614;13.500;2023-08-06T16:09:10;6.27;;;3.10;;
13834;SDS011;6988;52.614;13.500;2023-08-06T16:14:03;4.00;;;3.00;;
13834;SDS011;6988;52.614;13.500;2023-08-06T16:18:56;4.00;;;3.20;;
13834;SDS011;6988;52.614;13.500;2023-08-06T16:23:48;5.20;;;3.20;;
13834;SDS011;6988;52.614;13.500;2023-08-06T16:28:40;4.40;;;2.80;;
13834;SDS011;6988;52.614;13.500;2023-08-06T16:33:32;3.53;;;2.90;;
13834;SDS011;6988;52.614;13.500;2023-08-06T16:38:25;3.60;;;3.07;;
13834;SDS011;6988;52.614;13.500;2023-08-06T16:43:17;4.50;;;3.40;;
13834;SDS011;6988;52.614;13.500;2023-08-06T16:48:09;4.67;;;3.00;;
13834;SDS011;6988;52.614;13.500;2023-08-06T16:53:04;3.30;;;3.00;;
13834;SDS011;6988;52.614;13.500;2023-08-06T16:57:57;3.60;;;2.50;;
13834;SDS011;6988;52.614;13.500;2023-08-06T17:03:04;3.37;;;2.33;;
13834;SDS011;6988;52.614;13.500;2023-08-06T17:07:56;3.60;;;2.70;;
13834;SDS011;6988;52.614;13.500;2023-08-06T17:12:48;4.67;;;2.53;;
13834;SDS011;6988;52.614;13.500;2023-08-06T17:17:42;3.90;;;2.70;;
13834;SDS011;6988;52.614;13.500;2023-08-06T17:22:34;5.13;;;2.57;;
13834;SDS011;6988;52.614;13.500;2023-08-06T17:32:40;3.53;;;2.57;;
13834;SDS011;6988;52.614;13.500;2023-08-06T17:37:34;2.47;;;2.17;;
13834;SDS011;6988;52.614;13.500;2023-08-06T17:47:55;4.83;;;2.97;;
13834;SDS011;6988;52.614;13.500;2023-08-06T17:52:49;6.33;;;3.30;;
13834;SDS011;6988;52.614;13.500;2023-08-06T17:57:41;4.07;;;3.20;;
13834;SDS011;6988;52.614;13.500;2023-08-06T18:02:32;4.60;;;3.10;;
13834;SDS011;6988;52.614;13.500;2023-08-06T18:07:25;6.07;;;3.00;;
13834;SDS011;6988;52.614;13.500;2023-08-06T18:12:18;5.50;;;3.60;;
13834;SDS011;6988;52.614;13.500;2023-08-06T18:17:10;5.47;;;3.00;;
13834;SDS011;6988;52.614;13.500;2023-08-06T18:22:02;3.43;;;2.73;;
13834;SDS011;6988;52.614;13.500;2023-08-06T18:26:54;4.67;;;3.20;;
13834;SDS011;6988;52.614;13.500;2023-08-06T18:31:47;3.97;;;3.17;;
13834;SDS011;6988;52.614;13.500;2023-08-06T18:36:39;5.57;;;3.50;;
13834;SDS011;6988;52.614;13.500;2023-08-06T18:41:31;4.03;;;2.83;;
13834;SDS011;6988;52.614;13.500;2023-08-06T18:46:23;3.23;;;2.60;;
13834;SDS011;6988;52.614;13.500;2023-08-06T18:51:16;5.73;;;2.80;;
13834;SDS011;6988;52.614;13.500;2023-08-06T18:56:10;4.50;;;2.87;;
13834;SDS011;6988;52.614;13.500;2023-08-06T19:01:01;3.93;;;2.90;;
13834;SDS011;6988;52.614;13.500;2023-08-06T19:05:57;4.23;;;3.10;;
13834;SDS011;6988;52.614;13.500;2023-08-06T19:10:52;5.13;;;3.03;;
13834;SDS011;6988;52.614;13.500;2023-08-06T19:15:45;5.23;;;3.17;;
13834;SDS011;6988;52.614;13.500;2023-08-06T19:20:40;5.73;;;3.47;;
13834;SDS011;6988;52.614;13.500;2023-08-06T19:25:39;4.37;;;3.03;;
13834;SDS011;6988;52.614;13.500;2023-08-06T19:30:34;3.53;;;3.00;;
13834;SDS011;6988;52.614;13.500;2023-08-06T19:35:29;4.60;;;3.40;;
13834;SDS011;6988;52.614;13.500;2023-08-06T19:40:21;4.57;;;3.20;;
13834;SDS011;6988;52.614;13.500;2023-08-06T19:45:13;3.57;;;2.93;;
13834;SDS011;6988;52.614;13.500;2023-08-06T19:50:07;4.70;;;3.40;;
13834;SDS011;6988;52.614;13.500;2023-08-06T19:54:59;4.97;;;3.37;;
13834;SDS011;6988;52.614;13.500;2023-08-06T19:59:51;4.90;;;3.40;;
13834;SDS011;6988;52.614;13.500;2023-08-06T20:04:43;5.83;;;4.67;;
13834;SDS011;6988;52.614;13.500;2023-08-06T20:09:36;5.70;;;3.40;;
13834;SDS011;6988;52.614;13.500;2023-08-06T20:14:28;5.70;;;3.43;;
13834;SDS011;6988;52.614;13.500;2023-08-06T20:19:19;3.93;;;2.80;;
13834;SDS011;6988;52.614;13.500;2023-08-06T20:24:11;7.07;;;3.20;;
13834;SDS011;6988;52.614;13.500;2023-08-06T20:29:04;3.30;;;2.90;;
13834;SDS011;6988;52.614;13.500;2023-08-06T20:33:56;4.97;;;3.10;;
13834;SDS011;6988;52.614;13.500;2023-08-06T20:38:48;3.17;;;2.57;;
13834;SDS011;6988;52.614;13.500;2023-08-06T20:43:40;4.40;;;3.13;;
13834;SDS011;6988;52.614;13.500;2023-08-06T20:48:33;6.47;;;2.87;;
13834;SDS011;6988;52.614;13.500;2023-08-06T20:53:25;4.63;;;2.80;;
13834;SDS011;6988;52.614;13.500;2023-08-06T20:58:17;4.43;;;3.27;;
13834;SDS011;6988;52.614;13.500;2023-08-06T21:03:09;5.23;;;3.03;;
13834;SDS011;6988;52.614;13.500;2023-08-06T21:08:02;4.40;;;3.07;;
13834;SDS011;6988;52.614;13.500;2023-08-06T21:12:54;4.10;;;2.60;;
13834;SDS011;6988;52.614;13.500;2023-08-06T21:17:46;3.27;;;2.77;;
13834;SDS011;6988;52.614;13.500;2023-08-06T21:22:38;4.53;;;2.37;;
13834;SDS011;6988;52.614;13.500;2023-08-06T21:27:31;2.80;;;2.33;;
13834;SDS011;6988;52.614;13.500;2023-08-06T21:32:23;2.40;;;2.20;;
13834;SDS011;6988;52.614;13.500;2023-08-06T21:37:16;2.93;;;2.00;;
13834;SDS011;6988;52.614;13.500;2023-08-06T21:42:08;3.13;;;2.20;;
13834;SDS011;6988;52.614;13.500;2023-08-06T22:04:11;2.90;;;2.40;;
13834;SDS011;6988;52.614;13.500;2023-08-06T22:09:03;2.40;;;1.97;;
13834;SDS011;6988;52.614;13.500;2023-08-06T22:13:55;3.20;;;2.00;;
13834;SDS011;6988;52.614;13.500;2023-08-06T22:18:48;2.90;;;1.90;;
13834;SDS011;6988;52.614;13.500;2023-08-06T22:23:42;2.83;;;2.30;;
13834;SDS011;6988;52.614;13.500;2023-08-06T22:28:35;3.37;;;1.87;;
13834;SDS011;6988;52.614;13.500;2023-08-06T22:33:27;4.00;;;2.00;;
13834;SDS011;6988;52.614;13.500;2023-08-06T22:38:19;3.07;;;2.20;;
13834;SDS011;6988;52.614;13.500;2023-08-06T22:43:12;4.47;;;2.20;;
13834;SDS011;6988;52.614;13.500;2023-08-06T22:48:04;2.83;;;2.20;;
13834;SDS011;6988;52.614;13.500;2023-08-06T22:52:56;3.67;;;2.20;;
13834;SDS011;6988;52.614;13.500;2023-08-06T22:57:48;3.53;;;2.33;;
13834;SDS011;6988;52.614;13.500;2023-08-06T23:02:41;4.47;;;2.63;;
13834;SDS011;6988;52.614;13.500;2023-08-06T23:07:33;3.73;;;2.27;;
13834;SDS011;6988;52.614;13.500;2023-08-06T23:12:25;4.63;;;2.63;;
13834;SDS011;6988;52.614;13.500;2023-08-06T23:17:16;3.03;;;2.57;;
13834;SDS011;6988;52.614;13.500;2023-08-06T23:22:09;4.97;;;3.10;;
13834;SDS011;6988;52.614;13.500;2023-08-06T23:27:01;5.50;;;3.20;;
13834;SDS011;6988;52.614;13.500;2023-08-06T23:31:54;5.57;;;3.20;;
13834;SDS011;6988;52.614;13.500;2023-08-06T23:36:46;5.37;;;3.20;;
13834;SDS011;6988;52.614;13.500;2023-08-06T23:41:39;6.57;;;2.90;;
13834;SDS011;6988;52.614;13.500;2023-08-06T23:46:34;6.73;;;3.10;;
13834;SDS011;6988;52.614;13.500;2023-08-06T23:51:27;4.50;;;2.80;;
13834;SDS011;6988;52.614;13.500;2023-08-06T23:56:19;3.97;;;2.80;;
